createdAt,value
2022-08-26T00:01:57.730Z,69.75
2022-08-26T00:04:31.971Z,69.98
2022-08-26T00:07:05.266Z,69.99
2022-08-26T00:09:39.087Z,70.18
2022-08-26T00:12:12.668Z,70.28
2022-08-26T00:14:44.992Z,70.61
2022-08-26T00:17:16.978Z,70.81
2022-08-26T00:19:48.930Z,70.91
2022-08-26T00:22:23.044Z,71.17
2022-08-26T00:24:56.451Z,71.61
2022-08-26T00:27:28.373Z,71.44
2022-08-26T00:30:01.249Z,71.84
2022-08-26T00:32:33.613Z,71.76
2022-08-26T00:35:07.513Z,72.11
2022-08-26T00:37:41.781Z,72.35
2022-08-26T00:40:18.043Z,72.84
2022-08-26T00:42:50.113Z,72.45
2022-08-26T00:45:22.808Z,72.81
2022-08-26T00:48:02.037Z,73.61
2022-08-26T00:50:38.809Z,73.71
2022-08-26T00:53:23.813Z,73.44
2022-08-26T00:56:02.605Z,73.69
2022-08-26T00:58:36.965Z,73.72
2022-08-26T01:01:09.929Z,73.43
2022-08-26T01:03:43.857Z,73.99
2022-08-26T01:06:16.264Z,73.81
2022-08-26T01:08:48.868Z,73.78
2022-08-26T01:11:20.904Z,73.75
2022-08-26T01:13:54.969Z,73.71
2022-08-26T01:16:27.374Z,73.49
2022-08-26T01:19:05.341Z,74.06
2022-08-26T01:21:50.512Z,74.44
2022-08-26T01:24:24.154Z,73.82
2022-08-26T01:27:02.698Z,74.18
2022-08-26T01:29:36.863Z,74.05
2022-08-26T01:32:10.871Z,73.99
2022-08-26T01:34:43.111Z,74.26
2022-08-26T01:37:21.008Z,74.54
2022-08-26T01:39:57.330Z,74.35
2022-08-26T01:42:29.956Z,74.49
2022-08-26T01:45:12.086Z,74.71
2022-08-26T01:47:44.859Z,74.75
2022-08-26T01:50:27.535Z,75.50
2022-08-26T01:53:03.358Z,75.50
2022-08-26T01:55:37.678Z,75.42
2022-08-26T01:58:17.541Z,75.90
2022-08-26T02:00:51.760Z,75.19
2022-08-26T02:03:24.338Z,75.70
2022-08-26T02:06:03.887Z,76.33
2022-08-26T02:08:39.693Z,75.66
2022-08-26T02:11:12.486Z,76.17
2022-08-26T02:13:47.602Z,76.44
2022-08-26T02:16:22.901Z,76.57
2022-08-26T02:18:57.840Z,76.40
2022-08-26T02:21:30.511Z,76.43
2022-08-26T02:24:11.448Z,77.54
2022-08-26T02:26:45.460Z,76.80
2022-08-26T02:29:25.714Z,77.92
2022-08-26T02:31:57.563Z,77.09
2022-08-26T02:34:35.027Z,77.24
2022-08-26T02:37:08.939Z,77.53
2022-08-26T02:39:42.967Z,77.84
2022-08-26T02:42:14.834Z,77.68
2022-08-26T02:44:47.131Z,77.75
2022-08-26T02:47:19.129Z,77.63
2022-08-26T02:49:51.804Z,78.02
2022-08-26T02:52:24.153Z,78.05
2022-08-26T02:54:56.124Z,77.86
2022-08-26T02:57:28.366Z,78.37
2022-08-26T03:00:01.260Z,78.26
2022-08-26T03:02:34.366Z,78.29
2022-08-26T03:05:07.379Z,78.43
2022-08-26T03:07:40.051Z,78.78
2022-08-26T03:10:16.520Z,79.00
2022-08-26T03:12:48.894Z,78.99
2022-08-26T03:15:21.033Z,79.01
2022-08-26T03:17:53.022Z,79.08
2022-08-26T03:20:25.292Z,79.19
2022-08-26T03:22:57.241Z,79.17
2022-08-26T03:25:29.303Z,79.32
2022-08-26T03:28:01.221Z,79.32
2022-08-26T03:30:45.039Z,79.45
2022-08-26T03:33:17.901Z,79.34
2022-08-26T03:35:50.864Z,79.59
2022-08-26T03:38:25.150Z,79.65
2022-08-26T03:40:57.130Z,79.60
2022-08-26T03:43:29.119Z,79.71
2022-08-26T03:46:11.353Z,80.22
2022-08-26T03:48:44.063Z,80.08
2022-08-26T03:51:19.095Z,80.50
2022-08-26T03:53:51.122Z,80.51
2022-08-26T03:56:23.086Z,80.52
2022-08-26T03:58:56.091Z,80.63
2022-08-26T04:01:28.679Z,80.96
2022-08-26T04:04:01.715Z,80.77
2022-08-26T04:06:38.286Z,81.26
2022-08-26T04:09:17.906Z,81.20
2022-08-26T04:11:50.340Z,81.00
2022-08-26T04:14:24.852Z,81.43
2022-08-26T04:16:56.893Z,81.34
2022-08-26T04:19:29.340Z,81.00
2022-08-26T04:22:01.610Z,81.25
2022-08-26T04:24:33.637Z,81.37
2022-08-26T04:27:08.651Z,81.67
2022-08-26T04:29:41.501Z,81.25
2022-08-26T04:32:13.504Z,81.47
2022-08-26T04:34:45.615Z,81.40
2022-08-26T04:37:18.467Z,81.55
2022-08-26T04:39:54.514Z,81.45
2022-08-26T04:42:26.483Z,81.49
2022-08-26T04:44:58.867Z,81.40
2022-08-26T04:47:32.474Z,81.58
2022-08-26T04:50:06.964Z,81.70
2022-08-26T04:52:39.457Z,81.56
2022-08-26T04:55:11.492Z,81.69
2022-08-26T04:57:43.647Z,81.68
2022-08-26T05:00:15.785Z,81.96
2022-08-26T05:02:48.213Z,81.65
2022-08-26T05:05:23.541Z,81.77
2022-08-26T05:07:55.573Z,81.80
2022-08-26T05:10:27.628Z,81.80
2022-08-26T05:13:00.385Z,81.79
2022-08-26T05:15:32.385Z,81.83
2022-08-26T05:18:05.747Z,81.86
2022-08-26T05:20:41.398Z,81.88
2022-08-26T05:23:14.816Z,81.73
2022-08-26T05:25:48.443Z,81.72
2022-08-26T05:28:21.885Z,81.84
2022-08-26T05:30:55.545Z,81.75
2022-08-26T05:33:27.574Z,82.04
2022-08-26T05:36:07.544Z,82.48
2022-08-26T05:38:42.289Z,81.82
2022-08-26T05:41:34.161Z,82.48
2022-08-26T05:44:11.179Z,82.13
2022-08-26T05:46:44.720Z,81.69
2022-08-26T05:49:17.018Z,81.77
2022-08-26T05:51:49.241Z,81.64
2022-08-26T05:54:22.629Z,81.69
2022-08-26T05:56:54.522Z,81.27
2022-08-26T05:59:27.061Z,81.45
2022-08-26T06:01:59.728Z,81.72
2022-08-26T06:04:31.958Z,81.44
2022-08-26T06:07:03.965Z,81.28
2022-08-26T06:09:39.289Z,81.58
2022-08-26T06:12:11.303Z,81.46
2022-08-26T06:14:43.227Z,81.52
2022-08-26T06:17:16.399Z,81.32
2022-08-26T06:19:50.138Z,81.12
2022-08-26T06:22:40.924Z,80.79
2022-08-26T06:25:31.481Z,80.65
2022-08-26T06:28:03.901Z,80.63
2022-08-26T06:30:40.648Z,80.65
2022-08-26T06:33:13.901Z,80.34
2022-08-26T06:35:47.025Z,80.04
2022-08-26T06:38:20.288Z,80.15
2022-08-26T06:40:54.756Z,79.82
2022-08-26T06:43:28.194Z,79.85
2022-08-26T06:46:02.952Z,79.33
2022-08-26T06:48:37.424Z,79.06
2022-08-26T06:51:15.351Z,78.98
2022-08-26T06:53:48.782Z,78.38
2022-08-26T06:56:27.550Z,78.08
2022-08-26T06:59:00.078Z,77.95
2022-08-26T07:01:34.726Z,77.70
2022-08-26T07:04:10.553Z,77.28
2022-08-26T07:06:47.088Z,77.13
2022-08-26T07:09:19.107Z,76.91
2022-08-26T07:11:52.249Z,76.93
2022-08-26T07:14:26.220Z,76.31
2022-08-26T07:16:59.451Z,75.69
2022-08-26T07:19:31.898Z,74.91
2022-08-26T07:22:06.469Z,74.52
2022-08-26T07:24:44.161Z,74.00
2022-08-26T07:27:17.269Z,73.32
2022-08-26T07:29:49.287Z,73.07
2022-08-26T07:32:22.851Z,72.43
2022-08-26T07:34:55.157Z,71.57
2022-08-26T07:37:27.021Z,71.45
2022-08-26T07:40:04.639Z,70.63
2022-08-26T07:42:36.576Z,70.63
2022-08-26T07:45:08.741Z,69.91
2022-08-26T07:47:40.843Z,69.94
2022-08-26T07:50:13.471Z,69.30
2022-08-26T07:52:47.543Z,69.28
2022-08-26T07:55:19.543Z,68.98
2022-08-26T07:57:51.671Z,68.68
2022-08-26T08:00:23.944Z,68.60
2022-08-26T08:02:56.078Z,67.88
2022-08-26T08:05:33.736Z,67.42
2022-08-26T08:08:26.889Z,67.09
2022-08-26T08:11:00.138Z,66.92
2022-08-26T08:13:32.112Z,66.82
2022-08-26T08:16:05.258Z,66.66
2022-08-26T08:18:37.147Z,66.41
2022-08-26T08:21:21.730Z,66.18
2022-08-26T08:23:57.710Z,66.23
2022-08-26T08:26:29.735Z,66.10
2022-08-26T08:29:01.696Z,65.99
2022-08-26T08:34:28.894Z,65.54
2022-08-26T08:37:01.169Z,65.23
2022-08-26T08:39:35.668Z,65.10
2022-08-26T08:42:45.660Z,64.48
2022-08-26T08:45:23.123Z,64.68
2022-08-26T08:47:58.022Z,63.93
2022-08-26T08:50:33.837Z,63.70
2022-08-26T08:53:15.156Z,62.79
2022-08-26T08:56:05.163Z,63.05
2022-08-26T08:58:49.616Z,62.60
2022-08-26T09:01:28.371Z,62.60
2022-08-26T09:04:22.018Z,62.13
2022-08-26T09:09:37.060Z,61.63
2022-08-26T09:12:15.984Z,61.56
2022-08-26T09:14:49.613Z,61.45
2022-08-26T09:17:26.139Z,61.12
2022-08-26T09:20:09.468Z,60.29
2022-08-26T09:22:44.303Z,60.33
2022-08-26T09:25:16.534Z,60.43
2022-08-26T09:27:52.808Z,59.94
2022-08-26T09:30:34.437Z,59.35
2022-08-26T09:33:10.863Z,59.54
2022-08-26T09:35:47.461Z,59.53
2022-08-26T09:38:27.994Z,58.94
2022-08-26T09:41:05.074Z,58.97
2022-08-26T09:43:37.694Z,59.20
2022-08-26T09:46:19.552Z,58.07
2022-08-26T09:48:53.024Z,58.83
2022-08-26T09:51:31.512Z,58.42
2022-08-26T09:54:05.691Z,58.79
2022-08-26T09:56:40.306Z,58.83
2022-08-26T09:59:12.250Z,58.61
2022-08-26T10:01:45.205Z,58.92
2022-08-26T10:04:22.562Z,58.50
2022-08-26T10:06:58.054Z,58.15
2022-08-26T10:09:34.473Z,58.59
2022-08-26T10:12:13.746Z,58.45
2022-08-26T10:14:55.465Z,59.08
2022-08-26T10:17:38.235Z,59.22
2022-08-26T10:20:24.003Z,58.54
2022-08-26T10:23:09.505Z,58.00
2022-08-26T10:25:57.966Z,57.73
2022-08-26T10:28:35.818Z,57.48
2022-08-26T10:31:27.615Z,57.69
2022-08-26T10:34:00.784Z,57.83
2022-08-26T10:37:15.559Z,57.27
2022-08-26T10:39:57.222Z,57.49
2022-08-26T10:42:49.274Z,57.06
2022-08-26T10:45:25.387Z,57.50
2022-08-26T10:48:03.504Z,57.75
2022-08-26T10:50:40.516Z,57.50
2022-08-26T10:53:51.410Z,57.53
2022-08-26T10:56:39.143Z,57.22
2022-08-26T10:59:16.809Z,57.35
2022-08-26T11:02:10.264Z,57.92
2022-08-26T11:04:48.210Z,57.93
2022-08-26T11:07:39.884Z,57.23
2022-08-26T11:10:21.368Z,57.03
2022-08-26T11:12:54.894Z,56.70
2022-08-26T11:15:29.198Z,56.21
2022-08-26T11:18:06.106Z,55.72
2022-08-26T11:20:42.107Z,55.64
2022-08-26T11:23:23.158Z,54.93
2022-08-26T11:26:00.971Z,54.36
2022-08-26T11:28:44.768Z,53.56
2022-08-26T11:31:25.762Z,53.01
2022-08-26T11:34:04.216Z,52.53
2022-08-26T11:36:47.891Z,50.59
2022-08-26T11:39:31.991Z,48.77
2022-08-26T11:42:24.737Z,48.63
2022-08-26T11:45:03.546Z,48.57
2022-08-26T11:47:37.756Z,47.86
2022-08-26T11:50:13.374Z,45.72
2022-08-26T11:52:55.753Z,43.14
2022-08-26T11:55:29.840Z,42.84
2022-08-26T11:58:05.040Z,40.99
2022-08-26T12:00:55.089Z,36.89
2022-08-26T12:03:48.509Z,35.51
2022-08-26T12:06:29.641Z,34.69
2022-08-26T12:09:09.719Z,34.48
2022-08-26T12:11:41.997Z,35.07
2022-08-26T12:14:24.334Z,33.02
2022-08-26T12:17:12.000Z,32.87
2022-08-26T12:19:44.425Z,34.56
2022-08-26T12:22:24.071Z,35.21
2022-08-26T12:25:05.292Z,36.09
2022-08-26T12:27:40.225Z,36.85
2022-08-26T12:30:19.207Z,37.37
2022-08-26T12:33:03.552Z,38.26
2022-08-26T12:35:56.584Z,39.10
2022-08-26T12:38:30.151Z,39.05
2022-08-26T12:41:02.623Z,39.07
2022-08-26T12:43:42.360Z,38.93
2022-08-26T12:46:17.476Z,39.13
2022-08-26T12:48:49.748Z,39.54
2022-08-26T12:51:30.101Z,39.99
2022-08-26T12:54:06.656Z,40.50
2022-08-26T12:56:39.849Z,41.23
2022-08-26T12:59:25.737Z,41.74
2022-08-26T13:01:58.892Z,42.05
2022-08-26T13:04:38.762Z,42.91
2022-08-26T13:07:25.665Z,43.63
2022-08-26T13:09:59.043Z,43.75
2022-08-26T13:12:34.901Z,44.51
2022-08-26T13:15:08.225Z,44.70
2022-08-26T13:17:40.403Z,45.34
2022-08-26T13:20:12.283Z,45.13
2022-08-26T13:22:44.706Z,45.47
2022-08-26T13:25:24.025Z,45.80
2022-08-26T13:27:56.690Z,46.22
2022-08-26T13:30:29.577Z,46.02
2022-08-26T13:33:02.862Z,46.34
2022-08-26T13:35:36.021Z,46.79
2022-08-26T13:38:14.654Z,46.65
2022-08-26T13:41:06.039Z,46.31
2022-08-26T13:43:38.107Z,46.30
2022-08-26T13:46:10.490Z,47.04
2022-08-26T13:48:42.466Z,47.17
2022-08-26T13:51:18.630Z,47.37
2022-08-26T13:53:51.286Z,47.84
2022-08-26T13:56:24.259Z,48.44
2022-08-26T13:58:57.370Z,48.87
2022-08-26T14:01:30.694Z,48.79
2022-08-26T14:04:03.348Z,48.99
2022-08-26T14:06:35.785Z,49.43
2022-08-26T14:09:08.223Z,49.34
2022-08-26T14:11:54.561Z,49.16
2022-08-26T14:14:27.147Z,49.43
2022-08-26T14:17:00.535Z,49.15
2022-08-26T14:19:33.121Z,49.45
2022-08-26T14:22:05.528Z,49.16
2022-08-26T14:24:37.528Z,49.12
2022-08-26T14:27:10.004Z,49.32
2022-08-26T14:29:42.356Z,48.85
2022-08-26T14:32:22.915Z,48.87
2022-08-26T14:34:56.074Z,48.86
2022-08-26T14:37:28.251Z,49.06
2022-08-26T14:40:00.444Z,49.19
2022-08-26T14:42:34.155Z,49.15
2022-08-26T14:45:09.424Z,49.29
2022-08-26T14:47:42.090Z,49.18
2022-08-26T14:50:17.556Z,49.00
2022-08-26T14:53:09.631Z,49.05
2022-08-26T14:55:42.466Z,48.65
2022-08-26T14:58:14.703Z,48.66
2022-08-26T15:00:46.863Z,48.72
2022-08-26T15:05:56.113Z,49.15
2022-08-26T15:08:28.247Z,48.82
2022-08-26T15:11:00.444Z,49.13
2022-08-26T15:13:32.582Z,48.99
2022-08-26T15:16:04.699Z,48.24
2022-08-26T15:18:37.269Z,48.35
2022-08-26T15:21:09.260Z,48.42
2022-08-26T15:23:42.479Z,48.32
2022-08-26T15:26:20.644Z,48.11
2022-08-26T15:28:52.966Z,47.79
2022-08-26T15:31:31.061Z,47.79
2022-08-26T15:34:07.297Z,47.52
2022-08-26T15:36:39.545Z,47.55
2022-08-26T15:39:12.196Z,47.77
2022-08-26T15:41:44.855Z,47.67
2022-08-26T15:44:19.295Z,48.14
2022-08-26T15:46:54.250Z,48.15
2022-08-26T15:49:28.837Z,48.41
2022-08-26T15:52:04.237Z,48.71
2022-08-26T15:54:37.848Z,48.83
2022-08-26T15:57:15.351Z,48.75
2022-08-26T15:59:48.612Z,48.54
2022-08-26T16:02:21.530Z,48.98
2022-08-26T16:04:53.857Z,49.10
2022-08-26T16:07:27.032Z,48.65
2022-08-26T16:09:59.159Z,48.65
2022-08-26T16:12:31.226Z,47.99
2022-08-26T16:15:03.950Z,47.83
2022-08-26T16:17:35.918Z,47.60
2022-08-26T16:20:08.948Z,47.49
2022-08-26T16:22:41.209Z,47.54
2022-08-26T16:25:13.287Z,47.58
2022-08-26T16:27:45.428Z,47.32
2022-08-26T16:30:19.344Z,47.56
2022-08-26T16:32:51.878Z,48.49
2022-08-26T16:35:24.512Z,48.44
2022-08-26T16:37:56.685Z,48.77
2022-08-26T16:40:29.721Z,48.73
2022-08-26T16:43:03.050Z,48.19
2022-08-26T16:45:38.119Z,48.29
2022-08-26T16:48:14.154Z,48.36
2022-08-26T16:50:46.564Z,48.99
2022-08-26T16:53:19.271Z,49.12
2022-08-26T16:55:51.716Z,49.21
2022-08-26T16:58:23.901Z,49.50
2022-08-26T17:00:56.740Z,49.70
2022-08-26T17:03:28.752Z,49.58
2022-08-26T17:06:01.181Z,49.39
2022-08-26T17:08:33.380Z,49.09
2022-08-26T17:11:06.094Z,49.70
2022-08-26T17:13:39.288Z,49.61
2022-08-26T17:16:12.576Z,49.95
2022-08-26T17:18:44.880Z,51.34
2022-08-26T17:21:17.322Z,52.26
2022-08-26T17:23:49.345Z,53.22
2022-08-26T17:26:21.303Z,54.13
2022-08-26T17:28:53.983Z,55.18
2022-08-26T17:31:27.033Z,56.12
2022-08-26T17:33:59.067Z,56.99
2022-08-26T17:36:31.448Z,58.53
2022-08-26T17:39:03.809Z,59.39
2022-08-26T17:41:35.946Z,60.27
2022-08-26T17:44:08.171Z,60.30
2022-08-26T17:46:40.209Z,60.10
2022-08-26T17:49:12.306Z,60.15
2022-08-26T17:51:44.308Z,59.81
2022-08-26T17:54:16.476Z,60.07
2022-08-26T17:56:48.378Z,60.29
2022-08-26T17:59:20.927Z,60.39
2022-08-26T18:01:54.627Z,60.32
2022-08-26T18:04:27.176Z,60.48
2022-08-26T18:06:59.294Z,60.53
2022-08-26T18:09:32.595Z,61.18
2022-08-26T18:12:05.209Z,61.24
2022-08-26T18:14:37.233Z,61.49
2022-08-26T18:17:09.123Z,61.79
2022-08-26T18:22:15.621Z,62.51
2022-08-26T18:24:52.776Z,62.67
2022-08-26T18:27:30.598Z,63.03
2022-08-26T18:30:06.711Z,63.30
2022-08-26T18:32:38.602Z,63.81
2022-08-26T18:35:11.312Z,63.76
2022-08-26T18:37:44.444Z,64.03
2022-08-26T18:40:16.786Z,64.13
2022-08-26T18:42:54.186Z,64.17
2022-08-26T18:45:26.404Z,64.66
2022-08-26T18:47:58.512Z,64.67
2022-08-26T18:50:30.442Z,64.80
2022-08-26T18:53:02.876Z,64.76
2022-08-26T18:55:35.023Z,64.80
2022-08-26T18:58:07.042Z,65.01
2022-08-26T19:00:39.072Z,65.20
2022-08-26T19:03:18.422Z,65.30
2022-08-26T19:05:51.161Z,65.30
2022-08-26T19:08:23.393Z,65.77
2022-08-26T19:10:55.358Z,65.87
2022-08-26T19:13:27.366Z,66.27
2022-08-26T19:15:59.392Z,66.65
2022-08-26T19:18:32.438Z,66.77
2022-08-26T19:21:06.525Z,67.12
2022-08-26T19:23:38.830Z,66.96
2022-08-26T19:26:14.634Z,67.40
2022-08-26T19:28:48.223Z,67.36
2022-08-26T19:31:20.296Z,67.26
2022-08-26T19:33:52.595Z,67.16
2022-08-26T19:36:25.885Z,67.29
2022-08-26T19:38:58.167Z,67.29
2022-08-26T19:41:36.531Z,67.52
2022-08-26T19:44:33.669Z,67.81
2022-08-26T19:47:08.275Z,67.83
2022-08-26T19:49:40.377Z,68.09
2022-08-26T19:52:12.454Z,68.37
2022-08-26T19:54:44.594Z,68.52
2022-08-26T19:57:17.087Z,68.67
2022-08-26T19:59:49.088Z,68.99
2022-08-26T20:02:21.113Z,69.13
2022-08-26T20:04:53.515Z,68.68
2022-08-26T20:07:25.631Z,68.89
2022-08-26T20:10:03.240Z,68.78
2022-08-26T20:12:35.786Z,69.13
2022-08-26T20:15:09.942Z,69.00
2022-08-26T20:17:41.992Z,68.85
2022-08-26T20:20:33.946Z,68.68
2022-08-26T20:23:06.160Z,68.88
2022-08-26T20:25:38.143Z,68.68
2022-08-26T20:28:10.220Z,68.74
2022-08-26T20:30:42.294Z,68.98
2022-08-26T20:33:14.432Z,68.88
2022-08-26T20:35:46.904Z,68.91
2022-08-26T20:38:21.565Z,68.84
2022-08-26T20:40:54.216Z,69.04
2022-08-26T20:43:28.475Z,69.17
2022-08-26T20:46:00.941Z,69.49
2022-08-26T20:48:33.027Z,69.77
2022-08-26T20:51:05.588Z,69.89
2022-08-26T20:53:37.758Z,70.23
2022-08-26T20:56:10.746Z,70.25
2022-08-26T20:58:42.949Z,70.31
2022-08-26T21:01:19.878Z,70.30
2022-08-26T21:03:55.726Z,70.31
2022-08-26T21:06:27.707Z,70.17
2022-08-26T21:09:01.438Z,70.17
2022-08-26T21:11:34.319Z,69.99
2022-08-26T21:14:16.055Z,70.00
2022-08-26T21:16:49.351Z,69.86
2022-08-26T21:19:21.569Z,69.92
2022-08-26T21:21:53.768Z,70.33
2022-08-26T21:24:25.985Z,70.37
2022-08-26T21:26:58.284Z,70.50
2022-08-26T21:29:30.564Z,70.78
2022-08-26T21:32:02.973Z,70.79
2022-08-26T21:34:34.879Z,71.26
2022-08-26T21:37:13.311Z,71.69
2022-08-26T21:39:48.876Z,71.78
2022-08-26T21:42:21.537Z,72.10
2022-08-26T21:44:53.838Z,72.49
2022-08-26T21:47:26.132Z,72.25
2022-08-26T21:49:58.662Z,72.85
2022-08-26T21:52:30.646Z,72.75
2022-08-26T21:55:03.926Z,73.38
2022-08-26T21:57:41.038Z,73.42
2022-08-26T22:00:15.750Z,73.53
2022-08-26T22:02:50.212Z,73.69
2022-08-26T22:05:22.209Z,73.68
2022-08-26T22:07:54.493Z,74.02
2022-08-26T22:10:26.424Z,73.81
2022-08-26T22:12:58.509Z,73.88
2022-08-26T22:15:32.980Z,73.96
2022-08-26T22:18:06.070Z,73.80
2022-08-26T22:20:38.450Z,73.70
2022-08-26T22:23:10.961Z,73.68
2022-08-26T22:25:43.130Z,73.68
2022-08-26T22:28:15.848Z,73.82
2022-08-26T22:30:48.402Z,73.61
2022-08-26T22:33:20.353Z,73.57
2022-08-26T22:35:53.053Z,73.72
2022-08-26T22:38:25.032Z,73.66
2022-08-26T22:41:00.271Z,73.77
2022-08-26T22:43:32.769Z,73.71
2022-08-26T22:46:08.425Z,73.99
2022-08-26T22:48:40.363Z,73.81
2022-08-26T22:51:12.433Z,73.81
2022-08-26T22:53:45.238Z,73.96
2022-08-26T22:56:19.046Z,74.03
2022-08-26T22:58:51.252Z,74.55
2022-08-26T23:01:23.908Z,74.27
2022-08-26T23:03:56.060Z,74.49
2022-08-26T23:06:27.994Z,74.34
2022-08-26T23:08:59.956Z,74.32
2022-08-26T23:11:32.136Z,74.26
2022-08-26T23:14:06.192Z,74.32
2022-08-26T23:16:41.680Z,74.49
2022-08-26T23:19:14.682Z,74.24
2022-08-26T23:21:46.987Z,74.45
2022-08-26T23:24:18.923Z,74.24
2022-08-26T23:26:50.885Z,74.16
2022-08-26T23:29:22.940Z,74.25
2022-08-26T23:31:55.191Z,74.36
2022-08-26T23:34:46.128Z,74.47
2022-08-26T23:37:20.570Z,74.30
2022-08-26T23:39:54.824Z,74.61
2022-08-26T23:42:26.812Z,74.53
2022-08-26T23:45:03.650Z,74.92
2022-08-26T23:47:35.714Z,74.80
2022-08-26T23:50:08.983Z,75.01
2022-08-26T23:52:59.412Z,75.09
2022-08-26T23:55:38.767Z,75.26
2022-08-26T23:58:11.317Z,74.69
